Terminal Aerodrome Forecast
Issued by NWS Twin Cities, MN

Home | Current Version | Previous Version | Graphics & Text | Print | Product List | Glossary Off
Versions: 1 2 3 4 5 6 7 8 9 10 11 12 13 14 15 16 17 18 19 20 21 22 23 24 25 26 27 28 29 30

000
FTUS43 KMPX 020000 CCA
TAFMSP
TAF COR
KMSP 020027Z 0200/0306 14005KT 3SM BR OVC004
     FM020400 00000KT 1 1/2SM BR OVC004
      TEMPO 0209/0213 1SM BR OVC003
     FM021500 32004KT P6SM OVC009
     FM022000 35006KT 6SM -RA OVC010
     FM030400 33008KT P6SM SCT010 OVC070=

USA.gov is the U.S. government's official web portal to all federal, state and local government web resources and services.